createdAt,value
2019-02-21T00:02:01.360Z,13.30
2019-02-21T00:04:31.015Z,13.30
2019-02-21T00:07:01.079Z,13.30
2019-02-21T00:09:30.978Z,13.30
2019-02-21T00:12:00.636Z,13.30
2019-02-21T00:14:30.308Z,13.30
2019-02-21T00:16:59.887Z,13.30
2019-02-21T00:19:29.594Z,13.20
2019-02-21T00:21:59.097Z,13.20
2019-02-21T00:24:28.908Z,13.20
2019-02-21T00:26:58.858Z,13.20
2019-02-21T00:29:28.968Z,13.20
2019-02-21T00:31:58.739Z,13.10
2019-02-21T00:34:28.697Z,13.20
2019-02-21T00:36:58.611Z,13.10
2019-02-21T00:39:28.270Z,13.10
2019-02-21T00:41:57.923Z,13.10
2019-02-21T00:44:27.840Z,13.10
2019-02-21T00:46:57.793Z,13.10
2019-02-21T00:49:27.880Z,13.10
2019-02-21T00:51:57.528Z,13.10
2019-02-21T00:54:27.272Z,13.00
2019-02-21T00:56:57.319Z,13.00
2019-02-21T00:59:27.326Z,13.00
2019-02-21T01:01:56.988Z,13.00
2019-02-21T01:04:26.973Z,13.00
2019-02-21T01:06:57.076Z,13.00
2019-02-21T01:09:27.087Z,13.00
2019-02-21T01:11:56.686Z,12.90
2019-02-21T01:14:26.358Z,12.90
2019-02-21T01:16:55.937Z,12.90
2019-02-21T01:19:25.686Z,12.90
2019-02-21T01:21:55.193Z,12.90
2019-02-21T01:24:24.753Z,12.90
2019-02-21T01:26:54.654Z,12.90
2019-02-21T01:29:24.355Z,12.90
2019-02-21T01:31:55.407Z,12.90
2019-02-21T01:34:25.067Z,12.90
2019-02-21T01:36:54.719Z,12.90
2019-02-21T01:39:24.848Z,12.90
2019-02-21T01:41:54.628Z,12.90
2019-02-21T01:44:24.210Z,12.90
2019-02-21T01:46:53.801Z,12.90
2019-02-21T01:49:24.520Z,12.80
2019-02-21T01:51:54.227Z,12.80
2019-02-21T01:54:23.906Z,12.80
2019-02-21T01:56:53.610Z,12.80
2019-02-21T01:59:23.209Z,12.70
2019-02-21T02:01:52.943Z,12.70
2019-02-21T02:04:22.524Z,12.70
2019-02-21T02:06:52.479Z,12.70
2019-02-21T02:09:22.354Z,12.70
2019-02-21T02:11:52.098Z,12.70
2019-02-21T02:14:21.613Z,12.70
2019-02-21T02:16:51.373Z,12.70
2019-02-21T02:19:21.086Z,12.70
2019-02-21T02:21:50.747Z,12.70
2019-02-21T02:24:20.476Z,12.70
2019-02-21T02:26:50.157Z,12.70
2019-02-21T02:29:20.037Z,12.60
2019-02-21T02:31:49.674Z,12.70
2019-02-21T02:34:19.426Z,12.60
2019-02-21T02:36:49.233Z,12.60
2019-02-21T02:39:18.888Z,12.60
2019-02-21T02:41:48.850Z,12.60
2019-02-21T02:44:18.464Z,12.60
2019-02-21T02:46:48.184Z,12.60
2019-02-21T02:49:17.848Z,12.50
2019-02-21T02:51:47.544Z,12.50
2019-02-21T02:54:17.290Z,12.50
2019-02-21T02:56:46.868Z,12.50
2019-02-21T02:59:16.530Z,12.50
2019-02-21T03:01:46.495Z,12.50
2019-02-21T03:04:16.685Z,12.50
2019-02-21T03:06:46.364Z,12.50
2019-02-21T03:09:16.364Z,12.50
2019-02-21T03:11:45.933Z,12.50
2019-02-21T03:14:15.600Z,12.50
2019-02-21T03:16:45.284Z,12.40
2019-02-21T03:19:15.293Z,12.40
2019-02-21T03:21:45.297Z,12.40
2019-02-21T03:24:15.231Z,12.40
2019-02-21T03:26:44.957Z,12.40
2019-02-21T03:29:14.638Z,12.30
2019-02-21T03:31:54.261Z,12.30
2019-02-21T03:34:15.468Z,12.30
2019-02-21T03:36:45.107Z,12.40
2019-02-21T03:39:14.792Z,12.40
2019-02-21T03:41:44.844Z,12.40
2019-02-21T03:44:14.405Z,12.40
2019-02-21T03:46:44.142Z,12.40
2019-02-21T03:49:13.877Z,12.40
2019-02-21T03:51:43.864Z,12.40
2019-02-21T03:54:13.576Z,12.40
2019-02-21T03:56:43.243Z,12.40
2019-02-21T03:59:13.318Z,12.40
2019-02-21T04:01:42.990Z,12.30
2019-02-21T04:04:13.034Z,12.30
2019-02-21T04:06:42.699Z,12.20
2019-02-21T04:09:12.774Z,12.20
2019-02-21T04:11:42.487Z,12.30
2019-02-21T04:14:12.243Z,12.30
2019-02-21T04:16:42.089Z,12.30
2019-02-21T04:19:11.823Z,12.30
2019-02-21T04:21:41.492Z,12.30
2019-02-21T04:24:11.140Z,12.30
2019-02-21T04:26:40.874Z,12.30
2019-02-21T04:29:10.743Z,12.30
2019-02-21T04:31:40.758Z,12.30
2019-02-21T04:34:10.915Z,12.30
2019-02-21T04:36:40.613Z,12.30
2019-02-21T04:39:10.618Z,12.30
2019-02-21T04:41:40.276Z,12.20
2019-02-21T04:44:10.331Z,12.20
2019-02-21T04:46:39.988Z,12.20
2019-02-21T04:49:10.065Z,12.10
2019-02-21T04:51:39.673Z,12.10
2019-02-21T04:54:09.267Z,12.10
2019-02-21T04:56:38.855Z,12.10
2019-02-21T04:59:08.498Z,12.10
2019-02-21T05:01:40.307Z,12.10
2019-02-21T05:04:09.318Z,12.10
2019-02-21T05:06:39.362Z,12.10
2019-02-21T05:09:09.003Z,12.10
2019-02-21T05:11:38.588Z,12.10
2019-02-21T05:14:08.262Z,12.10
2019-02-21T05:16:37.840Z,12.10
2019-02-21T05:19:07.427Z,12.10
2019-02-21T05:21:37.022Z,12.10
2019-02-21T05:24:08.046Z,12.10
2019-02-21T05:26:39.627Z,12.00
2019-02-21T05:29:10.903Z,12.00
2019-02-21T05:31:54.202Z,12.00
2019-02-21T05:34:41.536Z,12.00
2019-02-21T05:37:13.254Z,12.00
2019-02-21T05:39:44.483Z,11.90
2019-02-21T05:42:16.159Z,11.90
2019-02-21T05:44:53.737Z,11.90
2019-02-21T05:47:27.805Z,11.90
2019-02-21T05:50:17.688Z,11.90
2019-02-21T05:52:49.062Z,11.80
2019-02-21T05:55:35.851Z,11.80
2019-02-21T05:58:07.075Z,11.80
2019-02-21T06:00:41.519Z,11.80
2019-02-21T06:03:25.317Z,11.70
2019-02-21T06:06:13.165Z,11.70
2019-02-21T06:08:44.824Z,9.90
2019-02-21T06:11:18.951Z,8.60
2019-02-21T06:13:59.391Z,7.40
2019-02-21T06:16:36.659Z,6.90
2019-02-21T06:19:35.895Z,6.50
2019-02-21T06:22:10.861Z,6.30
2019-02-21T06:24:42.370Z,6.20
2019-02-21T06:27:13.607Z,6.20
2019-02-21T06:29:47.930Z,6.10
2019-02-21T06:32:17.532Z,6.10
2019-02-21T06:34:47.476Z,6.00
2019-02-21T06:37:17.181Z,6.10
2019-02-21T06:39:46.773Z,6.20
2019-02-21T06:42:16.409Z,6.20
2019-02-21T06:44:46.086Z,6.30
2019-02-21T06:47:15.830Z,6.20
2019-02-21T06:49:45.522Z,6.10
2019-02-21T06:52:15.750Z,6.10
2019-02-21T06:54:45.754Z,6.10
2019-02-21T06:57:15.780Z,6.10
2019-02-21T06:59:45.777Z,6.20
2019-02-21T07:02:15.439Z,6.50
2019-02-21T07:04:45.401Z,6.60
2019-02-21T07:07:15.511Z,7.00
2019-02-21T07:09:45.230Z,7.10
2019-02-21T07:12:14.955Z,7.20
2019-02-21T07:14:44.598Z,7.20
2019-02-21T07:17:14.257Z,7.50
2019-02-21T07:19:44.277Z,8.20
2019-02-21T07:22:17.634Z,8.40
2019-02-21T07:24:46.454Z,8.70
2019-02-21T07:27:15.986Z,9.00
2019-02-21T07:29:45.785Z,8.80
2019-02-21T07:32:15.793Z,9.00
2019-02-21T07:34:45.709Z,9.20
2019-02-21T07:37:18.634Z,10.00
2019-02-21T07:39:46.859Z,10.50
2019-02-21T07:42:16.562Z,11.40
2019-02-21T07:44:46.262Z,12.50
2019-02-21T07:47:15.831Z,13.40
2019-02-21T07:49:45.546Z,14.00
2019-02-21T07:52:15.284Z,14.60
2019-02-21T07:54:45.231Z,15.10
2019-02-21T07:57:14.887Z,14.90
2019-02-21T07:59:44.540Z,15.10
2019-02-21T08:02:14.561Z,15.20
2019-02-21T08:04:44.265Z,15.10
2019-02-21T08:07:13.853Z,15.60
2019-02-21T08:09:43.516Z,16.10
2019-02-21T08:12:13.604Z,16.70
2019-02-21T08:14:43.474Z,17.40
2019-02-21T08:17:13.189Z,18.00
2019-02-21T08:19:42.811Z,18.00
2019-02-21T08:22:12.386Z,17.90
2019-02-21T08:24:42.009Z,18.40
2019-02-21T08:27:12.769Z,19.00
2019-02-21T08:29:42.803Z,19.30
2019-02-21T08:32:13.960Z,20.10
2019-02-21T08:34:48.061Z,20.90
2019-02-21T08:37:16.935Z,21.30
2019-02-21T08:39:46.650Z,21.60
2019-02-21T08:42:16.156Z,21.90
2019-02-21T08:44:45.746Z,22.40
2019-02-21T08:47:15.351Z,22.00
2019-02-21T08:49:44.879Z,21.60
2019-02-21T08:52:14.474Z,21.40
2019-02-21T08:54:44.365Z,22.60
2019-02-21T08:57:14.073Z,23.10
2019-02-21T08:59:44.131Z,23.10
2019-02-21T09:02:13.959Z,24.20
2019-02-21T09:04:43.491Z,24.70
2019-02-21T09:07:13.472Z,24.40
2019-02-21T09:09:44.673Z,24.90
2019-02-21T09:12:14.356Z,25.70
2019-02-21T09:14:43.884Z,25.60
2019-02-21T09:17:13.849Z,25.40
2019-02-21T09:19:45.062Z,25.40
2019-02-21T09:22:14.593Z,25.20
2019-02-21T09:24:44.250Z,25.90
2019-02-21T09:27:14.229Z,26.20
2019-02-21T09:29:43.867Z,26.70
2019-02-21T09:32:13.620Z,26.00
2019-02-21T09:34:43.489Z,26.50
2019-02-21T09:37:13.209Z,26.90
2019-02-21T09:39:42.726Z,26.90
2019-02-21T09:42:12.679Z,27.60
2019-02-21T09:44:42.339Z,27.90
2019-02-21T09:47:12.041Z,27.80
2019-02-21T09:49:41.718Z,28.00
2019-02-21T09:52:11.359Z,28.50
2019-02-21T09:54:40.935Z,28.60
2019-02-21T09:57:13.455Z,29.10
2019-02-21T09:59:41.859Z,29.20
2019-02-21T10:02:11.917Z,29.30
2019-02-21T10:04:41.483Z,29.20
2019-02-21T10:07:11.061Z,29.40
2019-02-21T10:09:40.730Z,29.80
2019-02-21T10:12:10.412Z,30.20
2019-02-21T10:14:41.106Z,30.10
2019-02-21T10:17:11.090Z,29.90
2019-02-21T10:19:40.730Z,29.90
2019-02-21T10:22:11.193Z,30.70
2019-02-21T10:24:41.022Z,30.50
2019-02-21T10:27:10.614Z,30.60
2019-02-21T10:29:40.344Z,30.90
2019-02-21T10:32:10.269Z,31.10
2019-02-21T10:34:43.060Z,30.60
2019-02-21T10:37:11.329Z,31.70
2019-02-21T10:39:41.187Z,31.50
2019-02-21T10:42:10.854Z,31.40
2019-02-21T10:44:40.586Z,31.60
2019-02-21T10:47:10.259Z,31.90
2019-02-21T10:49:39.897Z,31.00
2019-02-21T10:52:09.577Z,30.80
2019-02-21T10:54:39.477Z,31.10
2019-02-21T10:57:09.138Z,30.80
2019-02-21T10:59:46.144Z,30.20
2019-02-21T11:02:10.361Z,30.80
2019-02-21T11:04:42.145Z,31.30
2019-02-21T11:07:11.265Z,31.70
2019-02-21T11:09:41.345Z,31.20
2019-02-21T11:12:10.985Z,31.60
2019-02-21T11:14:47.604Z,31.90
2019-02-21T11:17:11.850Z,31.80
2019-02-21T11:19:41.433Z,31.50
2019-02-21T11:22:11.174Z,31.20
2019-02-21T11:24:41.151Z,30.80
2019-02-21T11:27:10.883Z,31.00
2019-02-21T11:29:40.472Z,31.00
2019-02-21T11:32:10.121Z,30.80
2019-02-21T11:34:40.190Z,30.40
2019-02-21T11:37:09.846Z,30.20
2019-02-21T11:39:39.476Z,29.10
2019-02-21T11:42:09.040Z,27.00
2019-02-21T11:44:38.707Z,25.50
2019-02-21T11:47:08.305Z,23.60
2019-02-21T11:49:37.937Z,22.30
2019-02-21T11:52:10.240Z,21.40
2019-02-21T11:54:38.856Z,20.70
2019-02-21T11:57:08.576Z,20.20
2019-02-21T11:59:38.613Z,19.70
2019-02-21T12:02:08.267Z,19.20
2019-02-21T12:04:37.888Z,19.30
2019-02-21T12:07:07.932Z,19.20
2019-02-21T12:09:37.560Z,18.90
2019-02-21T12:12:10.459Z,18.90
2019-02-21T12:14:40.089Z,18.90
2019-02-21T12:17:10.068Z,18.90
2019-02-21T12:19:39.661Z,18.80
2019-02-21T12:22:09.241Z,18.50
2019-02-21T12:24:39.200Z,18.40
2019-02-21T12:27:09.211Z,18.30
2019-02-21T12:29:38.726Z,18.20
2019-02-21T12:32:08.950Z,18.30
2019-02-21T12:34:38.605Z,18.40
2019-02-21T12:37:08.288Z,18.50
2019-02-21T12:39:38.002Z,18.30
2019-02-21T12:42:07.951Z,18.10
2019-02-21T12:44:37.918Z,18.20
2019-02-21T12:47:07.507Z,18.10
2019-02-21T12:49:37.116Z,18.20
2019-02-21T12:52:06.806Z,18.20
2019-02-21T12:54:36.694Z,18.00
2019-02-21T12:57:06.704Z,17.80
2019-02-21T12:59:36.314Z,17.70
2019-02-21T13:02:06.372Z,17.80
2019-02-21T13:04:36.444Z,17.80
2019-02-21T13:07:06.058Z,17.60
2019-02-21T13:09:35.730Z,17.70
2019-02-21T13:12:05.321Z,17.70
2019-02-21T13:14:34.911Z,17.70
2019-02-21T13:17:04.565Z,17.70
2019-02-21T13:19:34.231Z,17.60
2019-02-21T13:22:03.913Z,17.60
2019-02-21T13:24:33.876Z,17.50
2019-02-21T13:27:03.440Z,17.50
2019-02-21T13:29:33.179Z,17.50
2019-02-21T13:32:02.849Z,17.50
2019-02-21T13:34:32.419Z,17.40
2019-02-21T13:37:02.008Z,17.40
2019-02-21T13:39:31.628Z,17.40
2019-02-21T13:42:01.286Z,17.40
2019-02-21T13:44:30.957Z,17.30
2019-02-21T13:47:00.621Z,17.40
2019-02-21T13:49:30.662Z,17.40
2019-02-21T13:52:00.252Z,17.30
2019-02-21T13:54:30.191Z,17.40
2019-02-21T13:57:00.876Z,17.30
2019-02-21T13:59:30.543Z,17.20
2019-02-21T14:02:00.274Z,17.20
2019-02-21T14:04:30.248Z,17.10
2019-02-21T14:07:00.169Z,17.00
2019-02-21T14:09:29.873Z,16.80
2019-02-21T14:11:59.888Z,16.90
2019-02-21T14:14:30.920Z,17.00
2019-02-21T14:17:00.720Z,17.00
2019-02-21T14:19:30.240Z,17.10
2019-02-21T14:22:00.008Z,17.20
2019-02-21T14:24:36.732Z,17.20
2019-02-21T14:27:01.618Z,17.20
2019-02-21T14:29:38.777Z,17.20
2019-02-21T14:32:02.507Z,17.10
2019-02-21T14:34:32.096Z,17.10
2019-02-21T14:37:01.845Z,17.00
2019-02-21T14:39:32.840Z,17.00
2019-02-21T14:42:04.326Z,16.90
2019-02-21T14:44:33.917Z,17.00
2019-02-21T14:47:03.905Z,16.90
2019-02-21T14:49:33.499Z,17.00
2019-02-21T14:52:03.313Z,17.00
2019-02-21T14:54:32.989Z,17.00
2019-02-21T14:57:02.565Z,16.90
2019-02-21T14:59:32.196Z,16.90
2019-02-21T15:02:01.829Z,16.70
2019-02-21T15:04:31.502Z,16.70
2019-02-21T15:07:01.391Z,16.70
2019-02-21T15:09:31.523Z,16.60
2019-02-21T15:12:01.081Z,16.70
2019-02-21T15:14:30.726Z,16.60
2019-02-21T15:17:00.744Z,16.60
2019-02-21T15:19:30.415Z,16.70
2019-02-21T15:22:00.096Z,16.70
2019-02-21T15:24:29.829Z,16.60
2019-02-21T15:27:08.095Z,16.50
2019-02-21T15:29:31.142Z,16.50
2019-02-21T15:32:10.752Z,16.50
2019-02-21T15:34:32.096Z,16.60
2019-02-21T15:37:02.217Z,16.60
2019-02-21T15:39:32.338Z,16.50
2019-02-21T15:42:01.921Z,16.50
2019-02-21T15:44:31.453Z,16.50
2019-02-21T15:47:01.460Z,16.50
2019-02-21T15:49:31.071Z,16.40
2019-02-21T15:52:01.720Z,16.30
2019-02-21T15:54:31.390Z,16.30
2019-02-21T15:57:01.235Z,16.20
2019-02-21T15:59:30.879Z,16.20
2019-02-21T16:02:00.458Z,16.10
2019-02-21T16:04:30.165Z,16.10
2019-02-21T16:06:59.802Z,16.00
2019-02-21T16:09:29.388Z,15.90
2019-02-21T16:11:59.079Z,15.90
2019-02-21T16:14:28.668Z,15.90
2019-02-21T16:16:58.243Z,15.70
2019-02-21T16:19:27.943Z,15.60
2019-02-21T16:21:57.632Z,15.50
2019-02-21T16:24:27.287Z,15.40
2019-02-21T16:26:57.185Z,15.40
2019-02-21T16:29:27.042Z,15.40
2019-02-21T16:31:56.671Z,15.20
2019-02-21T16:34:26.377Z,15.00
2019-02-21T16:37:02.496Z,14.90
2019-02-21T16:39:27.390Z,14.80
2019-02-21T16:41:56.996Z,14.70
2019-02-21T16:44:27.041Z,14.60
2019-02-21T16:46:56.930Z,14.50
2019-02-21T16:49:26.920Z,14.30
2019-02-21T16:51:56.592Z,14.10
2019-02-21T16:54:26.171Z,14.00
2019-02-21T16:56:56.218Z,14.00
2019-02-21T16:59:25.884Z,13.80
2019-02-21T17:01:55.801Z,13.70
2019-02-21T17:04:25.752Z,13.60
2019-02-21T17:06:55.491Z,13.50
2019-02-21T17:09:25.143Z,13.40
2019-02-21T17:11:54.812Z,13.20
2019-02-21T17:14:24.466Z,13.10
2019-02-21T17:16:54.507Z,13.10
2019-02-21T17:19:24.160Z,13.00
2019-02-21T17:21:54.127Z,12.90
2019-02-21T17:24:23.853Z,12.80
2019-02-21T17:26:53.965Z,12.70
2019-02-21T17:29:23.557Z,12.40
2019-02-21T17:31:53.248Z,12.50
2019-02-21T17:34:22.864Z,12.60
2019-02-21T17:36:52.586Z,12.50
2019-02-21T17:39:22.631Z,12.50
2019-02-21T17:41:52.184Z,12.30
2019-02-21T17:44:22.330Z,12.20
2019-02-21T17:46:53.211Z,12.20
2019-02-21T17:49:22.859Z,12.20
2019-02-21T17:51:53.902Z,12.20
2019-02-21T17:54:25.087Z,12.10
2019-02-21T17:56:54.968Z,12.10
2019-02-21T17:59:25.696Z,12.10
2019-02-21T18:01:56.414Z,12.10
2019-02-21T18:04:26.153Z,11.90
2019-02-21T18:06:55.693Z,12.00
2019-02-21T18:09:25.428Z,12.10
2019-02-21T18:11:55.024Z,11.90
2019-02-21T18:14:24.774Z,12.00
2019-02-21T18:16:54.442Z,12.00
2019-02-21T18:19:24.155Z,12.00
2019-02-21T18:21:53.676Z,11.90
2019-02-21T18:24:23.313Z,11.90
2019-02-21T18:26:53.258Z,11.80
2019-02-21T18:29:23.357Z,11.80
2019-02-21T18:31:53.137Z,11.70
2019-02-21T18:34:23.093Z,11.60
2019-02-21T18:36:53.103Z,11.60
2019-02-21T18:39:23.110Z,11.60
2019-02-21T18:41:53.141Z,11.60
2019-02-21T18:44:22.793Z,11.60
2019-02-21T18:46:52.537Z,11.50
2019-02-21T18:49:22.244Z,11.40
2019-02-21T18:51:51.841Z,11.40
2019-02-21T18:54:21.895Z,11.20
2019-02-21T18:56:51.559Z,11.10
2019-02-21T18:59:31.124Z,11.20
2019-02-21T19:01:52.748Z,11.40
2019-02-21T19:04:22.488Z,11.50
2019-02-21T19:06:52.087Z,11.50
2019-02-21T19:09:22.208Z,11.30
2019-02-21T19:11:51.846Z,11.30
2019-02-21T19:14:21.822Z,11.40
2019-02-21T19:16:51.489Z,11.30
2019-02-21T19:19:21.139Z,11.20
2019-02-21T19:21:50.934Z,11.10
2019-02-21T19:24:20.969Z,11.20
2019-02-21T19:26:50.995Z,11.20
2019-02-21T19:29:20.639Z,11.20
2019-02-21T19:31:50.214Z,11.00
2019-02-21T19:34:19.967Z,10.90
2019-02-21T19:36:49.931Z,10.90
2019-02-21T19:39:21.085Z,10.90
2019-02-21T19:41:50.803Z,10.80
2019-02-21T19:44:20.903Z,10.70
2019-02-21T19:46:50.669Z,10.80
2019-02-21T19:49:20.745Z,10.80
2019-02-21T19:51:50.554Z,10.70
2019-02-21T19:54:20.505Z,10.60
2019-02-21T19:56:50.172Z,10.60
2019-02-21T19:59:19.899Z,10.60
2019-02-21T20:01:50.147Z,10.50
2019-02-21T20:04:19.736Z,10.40
2019-02-21T20:06:49.242Z,10.40
2019-02-21T20:09:19.607Z,10.60
2019-02-21T20:11:49.674Z,10.60
2019-02-21T20:14:19.786Z,10.60
2019-02-21T20:16:49.703Z,10.50
2019-02-21T20:19:19.396Z,10.40
2019-02-21T20:21:49.319Z,10.50
2019-02-21T20:24:19.243Z,10.50
2019-02-21T20:26:48.915Z,10.40
2019-02-21T20:29:18.599Z,10.30
2019-02-21T20:31:49.180Z,10.20
2019-02-21T20:34:18.917Z,10.10
2019-02-21T20:36:51.365Z,10.30
2019-02-21T20:39:20.334Z,10.20
2019-02-21T20:41:50.011Z,10.20
2019-02-21T20:44:19.730Z,10.20
2019-02-21T20:46:49.814Z,10.10
2019-02-21T20:49:20.016Z,10.10
2019-02-21T20:51:50.034Z,10.00
2019-02-21T20:54:19.531Z,10.00
2019-02-21T20:56:49.064Z,10.20
2019-02-21T20:59:18.661Z,10.40
2019-02-21T21:01:48.379Z,10.40
2019-02-21T21:04:18.134Z,10.40
2019-02-21T21:06:47.865Z,10.40
2019-02-21T21:09:17.660Z,10.30
2019-02-21T21:11:47.386Z,10.30
2019-02-21T21:14:16.992Z,10.40
2019-02-21T21:16:46.744Z,10.40
2019-02-21T21:19:16.654Z,10.40
2019-02-21T21:21:46.303Z,10.30
2019-02-21T21:24:16.015Z,10.20
2019-02-21T21:26:45.735Z,10.20
2019-02-21T21:29:15.792Z,10.30
2019-02-21T21:31:45.392Z,10.50
2019-02-21T21:34:15.418Z,10.50
2019-02-21T21:36:45.220Z,10.60
2019-02-21T21:39:15.037Z,10.60
2019-02-21T21:41:44.739Z,10.50
2019-02-21T21:44:14.336Z,10.30
2019-02-21T21:46:44.074Z,10.20
2019-02-21T21:49:13.734Z,10.00
2019-02-21T21:51:43.688Z,9.90
2019-02-21T21:54:13.422Z,9.80
2019-02-21T21:56:43.375Z,9.60
2019-02-21T21:59:13.328Z,9.50
2019-02-21T22:01:43.363Z,9.50
2019-02-21T22:04:13.472Z,9.60
2019-02-21T22:06:43.213Z,9.60
2019-02-21T22:09:12.885Z,9.50
2019-02-21T22:11:42.534Z,9.60
2019-02-21T22:14:12.150Z,9.70
2019-02-21T22:16:42.168Z,9.60
2019-02-21T22:19:12.132Z,9.50
2019-02-21T22:21:41.926Z,9.40
2019-02-21T22:24:12.088Z,9.30
2019-02-21T22:26:41.659Z,9.20
2019-02-21T22:29:11.330Z,9.20
2019-02-21T22:31:41.515Z,9.30
2019-02-21T22:34:11.095Z,9.50
2019-02-21T22:36:40.593Z,9.30
2019-02-21T22:39:16.409Z,9.20
2019-02-21T22:41:41.416Z,9.10
2019-02-21T22:44:10.989Z,9.10
2019-02-21T22:46:40.804Z,9.40
2019-02-21T22:49:10.450Z,10.10
2019-02-21T22:51:40.604Z,10.90
2019-02-21T22:54:10.477Z,11.60
2019-02-21T22:56:40.101Z,12.10
2019-02-21T22:59:09.750Z,12.50
2019-02-21T23:01:39.622Z,12.90
2019-02-21T23:04:15.155Z,13.20
2019-02-21T23:06:50.781Z,13.40
2019-02-21T23:09:27.406Z,13.60
2019-02-21T23:11:53.969Z,13.70
2019-02-21T23:14:23.714Z,13.80
2019-02-21T23:16:53.688Z,13.90
2019-02-21T23:19:24.264Z,13.90
2019-02-21T23:21:53.976Z,14.00
2019-02-21T23:24:23.710Z,14.00
2019-02-21T23:26:53.435Z,14.00
2019-02-21T23:29:23.490Z,14.10
2019-02-21T23:31:53.112Z,14.10
2019-02-21T23:34:30.433Z,14.10
2019-02-21T23:37:00.495Z,14.10
2019-02-21T23:39:38.033Z,14.10
2019-02-21T23:42:01.633Z,14.10
2019-02-21T23:44:32.374Z,14.00
2019-02-21T23:47:02.399Z,14.00
2019-02-21T23:49:32.331Z,14.00
2019-02-21T23:52:01.899Z,14.00
2019-02-21T23:54:31.626Z,14.00
2019-02-21T23:57:01.541Z,14.00
2019-02-21T23:59:31.119Z,14.00
